This is the latest recevied weather packets stored in our database for station/object DO7VLR-5. If no packets are shown the sender has not sent any weather packets the latest 10 day(s).
| Time | Temp. | Humidity | Pressure | Rain* | Wind** | Luminosity | Snow |
|---|---|---|---|---|---|---|---|
| 1777141816 | 13.33° C | 57% | 1017.3 hPa | 0 mm | - | - | - |
| 1777140016 | 15° C | 48% | 1017 hPa | 0 mm | - | - | - |
| 1777138216 | 17.78° C | 30% | 1017 hPa | 0 mm | - | - | - |
| 1777136415 | 20° C | 29% | 1016.9 hPa | 0 mm | - | - | - |
| 1777134615 | 21.67° C | 22% | 1016.9 hPa | 0 mm | - | - | - |
| 1777132816 | 22.22° C | 20% | 1016.8 hPa | 0 mm | - | - | - |
| 1777131018 | 23.33° C | 22% | 1016.8 hPa | 0 mm | - | - | - |
| 1777129218 | 22.22° C | 25% | 1017 hPa | 0 mm | - | - | - |
| 1777127418 | 22.22° C | 27% | 1017 hPa | 0 mm | - | - | - |
| 1777125617 | 22.22° C | 28% | 1017.1 hPa | 0 mm | - | - | - |
| 1777123817 | 22.22° C | 30% | 1017.3 hPa | 0 mm | - | - | - |
| 1777122017 | 21.11° C | 31% | 1017.5 hPa | 0 mm | - | - | - |
| 1777120217 | 21.11° C | 32% | 1017.8 hPa | 0 mm | - | - | - |
| 1777118417 | 20.56° C | 33% | 1018 hPa | 0 mm | - | - | - |
| 1777116617 | 19.44° C | 35% | 1018.2 hPa | 0 mm | - | - | - |
| 1777114817 | 19.44° C | 36% | 1018.6 hPa | 0 mm | - | - | - |
| 1777113017 | 18.89° C | 39% | 1018.8 hPa | 0 mm | - | - | - |
| 1777111217 | 18.33° C | 38% | 1018.9 hPa | 0 mm | - | - | - |
| 1777109416 | 17.22° C | 46% | 1019 hPa | 0 mm | - | - | - |
| 1777107617 | 17.22° C | 46% | 1018.9 hPa | 0 mm | - | - | - |
| 1777105816 | 15.56° C | 53% | 1019.1 hPa | 0 mm | - | - | - |
| 1777104016 | 15° C | 59% | 1019 hPa | 0 mm | - | - | - |
| 1777102216 | 12.22° C | 68% | 1019.1 hPa | 0 mm | - | - | - |
| 1777100417 | 8.89° C | 75% | 1018.9 hPa | 0 mm | - | - | - |
| 1777098616 | 6.67° C | 81% | 1019.1 hPa | 0 mm | - | - | - |
* Rain latest hour (hover to see other rain measurements)
** Current wind speed in m/s (hover to see current wind gust speed)